createdAt,value
2023-02-15T00:01:38.566Z,31.80
2023-02-15T00:04:06.532Z,31.82
2023-02-15T00:06:34.521Z,31.55
2023-02-15T00:09:02.471Z,31.48
2023-02-15T00:11:43.717Z,31.34
2023-02-15T00:14:13.983Z,31.81
2023-02-15T00:16:42.278Z,31.36
2023-02-15T00:19:10.400Z,31.31
2023-02-15T00:21:38.915Z,31.24
2023-02-15T00:24:08.311Z,31.43
2023-02-15T00:26:36.214Z,31.43
2023-02-15T00:29:04.374Z,31.67
2023-02-15T00:31:34.182Z,31.61
2023-02-15T00:34:04.069Z,31.49
2023-02-15T00:36:32.000Z,31.41
2023-02-15T00:38:59.949Z,31.32
2023-02-15T00:41:28.113Z,31.28
2023-02-15T00:43:56.051Z,31.51
2023-02-15T00:46:23.988Z,31.23
2023-02-15T00:48:53.452Z,31.30
2023-02-15T00:51:22.356Z,31.50
2023-02-15T00:53:50.300Z,31.05
2023-02-15T00:56:18.258Z,31.31
2023-02-15T00:58:46.255Z,31.77
2023-02-15T01:01:14.895Z,31.36
2023-02-15T01:03:43.578Z,31.53
2023-02-15T01:06:12.970Z,31.50
2023-02-15T01:08:40.875Z,31.12
2023-02-15T01:11:09.239Z,31.10
2023-02-15T01:13:37.204Z,31.43
2023-02-15T01:16:05.958Z,31.55
2023-02-15T01:18:34.085Z,31.34
2023-02-15T01:21:02.060Z,31.58
2023-02-15T01:23:31.586Z,31.37
2023-02-15T01:26:04.107Z,31.66
2023-02-15T01:28:32.201Z,31.59
2023-02-15T01:31:00.535Z,31.49
2023-02-15T01:33:28.752Z,31.39
2023-02-15T01:35:59.495Z,31.66
2023-02-15T01:38:27.604Z,31.35
2023-02-15T01:41:18.168Z,31.35
2023-02-15T01:43:47.325Z,31.61
2023-02-15T01:46:15.490Z,31.56
2023-02-15T01:48:46.034Z,31.26
2023-02-15T01:51:14.002Z,31.49
2023-02-15T01:53:43.951Z,31.21
2023-02-15T01:56:14.927Z,31.38
2023-02-15T01:58:42.820Z,31.45
2023-02-15T02:01:10.781Z,31.34
2023-02-15T02:03:43.387Z,30.98
2023-02-15T02:06:11.739Z,31.43
2023-02-15T02:08:39.772Z,31.02
2023-02-15T02:11:14.069Z,31.52
2023-02-15T02:13:42.017Z,31.19
2023-02-15T02:16:12.406Z,31.17
2023-02-15T02:18:46.559Z,31.23
2023-02-15T02:21:33.195Z,31.39
2023-02-15T02:24:22.275Z,31.34
2023-02-15T02:27:26.317Z,30.93
2023-02-15T02:30:29.640Z,31.24
2023-02-15T02:33:16.537Z,31.11
2023-02-15T02:35:47.697Z,30.97
2023-02-15T02:38:19.603Z,31.22
2023-02-15T02:40:53.925Z,31.10
2023-02-15T02:43:23.370Z,31.40
2023-02-15T02:45:53.426Z,30.81
2023-02-15T02:48:24.017Z,31.06
2023-02-15T02:50:51.918Z,31.38
2023-02-15T02:53:20.195Z,31.33
2023-02-15T02:55:49.215Z,30.82
2023-02-15T02:58:19.041Z,30.92
2023-02-15T03:00:47.792Z,31.19
2023-02-15T03:03:16.769Z,31.42
2023-02-15T03:05:46.901Z,31.33
2023-02-15T03:08:22.650Z,30.97
2023-02-15T03:10:50.747Z,30.95
2023-02-15T03:13:19.124Z,31.28
2023-02-15T03:16:04.301Z,30.76
2023-02-15T03:18:33.267Z,31.25
2023-02-15T03:21:02.608Z,30.90
2023-02-15T03:23:30.767Z,31.54
2023-02-15T03:25:59.995Z,31.08
2023-02-15T03:28:29.726Z,31.18
2023-02-15T03:30:58.512Z,30.95
2023-02-15T03:33:26.764Z,31.00
2023-02-15T03:35:57.918Z,31.26
2023-02-15T03:38:29.046Z,30.94
2023-02-15T03:41:12.332Z,30.77
2023-02-15T03:43:44.112Z,30.79
2023-02-15T03:46:14.886Z,31.21
2023-02-15T03:48:44.589Z,30.89
2023-02-15T03:51:35.881Z,31.15
2023-02-15T03:54:06.828Z,31.15
2023-02-15T03:56:35.794Z,30.96
2023-02-15T03:59:22.353Z,31.04
2023-02-15T04:01:59.366Z,30.90
2023-02-15T04:04:37.421Z,30.53
2023-02-15T04:07:06.708Z,30.99
2023-02-15T04:09:53.712Z,30.57
2023-02-15T04:12:21.608Z,30.47
2023-02-15T04:15:08.620Z,31.08
2023-02-15T04:17:38.142Z,30.64
2023-02-15T04:20:24.769Z,30.72
2023-02-15T04:23:10.002Z,30.60
2023-02-15T04:25:39.406Z,30.73
2023-02-15T04:28:08.596Z,30.84
2023-02-15T04:30:36.619Z,30.75
2023-02-15T04:33:04.870Z,30.46
2023-02-15T04:35:34.464Z,30.93
2023-02-15T04:38:02.431Z,30.76
2023-02-15T04:40:30.333Z,30.88
2023-02-15T04:42:59.632Z,30.81
2023-02-15T04:45:28.140Z,30.36
2023-02-15T04:47:56.182Z,30.35
2023-02-15T04:50:24.191Z,30.35
2023-02-15T04:52:52.424Z,30.51
2023-02-15T04:55:20.327Z,30.72
2023-02-15T04:57:48.377Z,30.78
2023-02-15T05:00:18.359Z,30.58
2023-02-15T05:02:46.580Z,30.51
2023-02-15T05:05:16.164Z,30.72
2023-02-15T05:07:44.060Z,30.64
2023-02-15T05:10:12.036Z,30.70
2023-02-15T05:12:40.272Z,30.60
2023-02-15T05:15:10.750Z,30.59
2023-02-15T05:17:41.074Z,30.63
2023-02-15T05:20:09.587Z,30.24
2023-02-15T05:22:37.829Z,30.74
2023-02-15T05:25:23.527Z,30.12
2023-02-15T05:28:08.589Z,30.54
2023-02-15T05:30:37.005Z,30.23
2023-02-15T05:33:06.733Z,30.51
2023-02-15T05:35:34.728Z,30.40
2023-02-15T05:38:02.567Z,30.35
2023-02-15T05:40:30.462Z,30.63
2023-02-15T05:42:58.815Z,30.15
2023-02-15T05:45:26.873Z,30.45
2023-02-15T05:47:54.778Z,30.32
2023-02-15T05:50:24.077Z,30.50
2023-02-15T05:52:53.418Z,30.13
2023-02-15T05:55:21.321Z,30.31
2023-02-15T05:57:49.242Z,30.24
2023-02-15T06:00:17.874Z,30.43
2023-02-15T06:02:46.118Z,30.47
2023-02-15T06:05:14.124Z,30.02
2023-02-15T06:07:44.819Z,30.07
2023-02-15T06:10:12.782Z,30.40
2023-02-15T06:12:41.049Z,30.39
2023-02-15T06:15:12.182Z,30.23
2023-02-15T06:17:40.080Z,30.42
2023-02-15T06:20:09.339Z,30.17
2023-02-15T06:22:37.607Z,29.96
2023-02-15T06:25:10.849Z,29.95
2023-02-15T06:27:38.798Z,30.22
2023-02-15T06:30:14.339Z,30.15
2023-02-15T06:32:42.672Z,30.40
2023-02-15T06:35:10.646Z,30.34
2023-02-15T06:37:38.595Z,30.12
2023-02-15T06:40:09.511Z,30.13
2023-02-15T06:42:37.774Z,30.36
2023-02-15T06:45:08.606Z,30.09
2023-02-15T06:47:36.660Z,30.26
2023-02-15T06:50:05.053Z,29.83
2023-02-15T06:52:33.438Z,30.31
2023-02-15T06:55:01.351Z,30.01
2023-02-15T06:57:31.017Z,30.32
2023-02-15T06:59:59.408Z,30.04
2023-02-15T07:02:27.704Z,30.33
2023-02-15T07:04:55.726Z,30.23
2023-02-15T07:07:23.716Z,29.79
2023-02-15T07:09:51.678Z,30.27
2023-02-15T07:12:37.245Z,29.99
2023-02-15T07:15:10.116Z,30.32
2023-02-15T07:17:38.272Z,30.15
2023-02-15T07:20:08.752Z,30.14
2023-02-15T07:22:37.244Z,30.02
2023-02-15T07:25:05.333Z,30.19
2023-02-15T07:27:33.440Z,29.69
2023-02-15T07:30:01.418Z,30.07
2023-02-15T07:32:31.717Z,29.75
2023-02-15T07:34:59.714Z,29.86
2023-02-15T07:37:27.887Z,29.69
2023-02-15T07:39:55.774Z,29.57
2023-02-15T07:42:24.062Z,30.04
2023-02-15T07:44:53.686Z,29.98
2023-02-15T07:47:21.647Z,29.93
2023-02-15T07:49:52.214Z,30.07
2023-02-15T07:52:20.379Z,29.96
2023-02-15T07:54:48.338Z,29.66
2023-02-15T07:57:16.399Z,30.13
2023-02-15T07:59:44.636Z,29.63
2023-02-15T08:02:12.858Z,29.79
2023-02-15T08:04:41.103Z,30.01
2023-02-15T08:07:10.359Z,29.58
2023-02-15T08:09:38.263Z,29.99
2023-02-15T08:12:06.713Z,30.07
2023-02-15T08:14:34.845Z,29.85
2023-02-15T08:17:05.957Z,29.72
2023-02-15T08:19:35.457Z,29.66
2023-02-15T08:22:05.022Z,30.17
2023-02-15T08:24:35.326Z,29.57
2023-02-15T08:27:06.159Z,29.85
2023-02-15T08:29:34.640Z,29.57
2023-02-15T08:32:03.949Z,29.75
2023-02-15T08:34:32.437Z,29.53
2023-02-15T08:37:00.405Z,30.03
2023-02-15T08:39:28.445Z,29.86
2023-02-15T08:41:58.082Z,29.72
2023-02-15T08:44:26.146Z,30.10
2023-02-15T08:46:54.080Z,29.67
2023-02-15T08:49:22.926Z,29.84
2023-02-15T08:51:51.312Z,29.90
2023-02-15T08:54:20.224Z,29.97
2023-02-15T08:56:48.171Z,29.75
2023-02-15T08:59:18.137Z,29.97
2023-02-15T09:01:46.624Z,29.91
2023-02-15T09:04:16.560Z,29.48
2023-02-15T09:06:47.642Z,29.42
2023-02-15T09:09:16.218Z,29.83
2023-02-15T09:11:45.442Z,29.97
2023-02-15T09:14:15.427Z,30.03
2023-02-15T09:16:47.210Z,29.69
2023-02-15T09:19:15.253Z,29.64
2023-02-15T09:21:43.591Z,29.69
2023-02-15T09:24:12.545Z,29.68
2023-02-15T09:26:41.787Z,29.38
2023-02-15T09:29:09.950Z,29.85
2023-02-15T09:31:42.254Z,29.67
2023-02-15T09:34:11.636Z,29.45
2023-02-15T09:36:40.951Z,29.49
2023-02-15T09:39:10.372Z,29.83
2023-02-15T09:42:20.226Z,29.50
2023-02-15T09:45:39.460Z,29.91
2023-02-15T09:48:24.156Z,29.81
2023-02-15T09:50:59.731Z,29.60
2023-02-15T09:53:44.749Z,29.79
2023-02-15T09:56:17.209Z,29.80
2023-02-15T09:58:49.627Z,29.59
2023-02-15T10:01:21.054Z,29.39
2023-02-15T10:03:57.457Z,29.45
2023-02-15T10:06:45.346Z,29.33
2023-02-15T10:09:52.015Z,29.42
2023-02-15T10:12:31.187Z,29.42
2023-02-15T10:15:20.345Z,29.42
2023-02-15T10:17:57.464Z,29.41
2023-02-15T10:20:29.016Z,29.71
2023-02-15T10:23:15.852Z,29.44
2023-02-15T10:25:46.504Z,29.75
2023-02-15T10:28:18.639Z,29.60
2023-02-15T10:30:49.061Z,29.60
2023-02-15T10:33:25.838Z,29.33
2023-02-15T10:35:57.972Z,29.46
2023-02-15T10:38:30.340Z,29.63
2023-02-15T10:41:06.655Z,29.43
2023-02-15T10:43:45.176Z,29.44
2023-02-15T10:46:16.745Z,29.36
2023-02-15T10:48:57.724Z,29.55
2023-02-15T10:51:28.968Z,29.32
2023-02-15T10:54:07.452Z,29.46
2023-02-15T10:56:37.754Z,29.74
2023-02-15T10:59:21.205Z,29.54
2023-02-15T11:01:51.323Z,29.77
2023-02-15T11:04:53.614Z,29.83
2023-02-15T11:07:23.446Z,29.23
2023-02-15T11:09:54.418Z,29.52
2023-02-15T11:12:24.560Z,29.41
2023-02-15T11:14:55.223Z,29.54
2023-02-15T11:17:24.596Z,29.23
2023-02-15T11:19:58.144Z,29.48
2023-02-15T11:22:26.106Z,29.76
2023-02-15T11:24:55.760Z,29.34
2023-02-15T11:27:24.441Z,29.36
2023-02-15T11:29:59.627Z,29.56
2023-02-15T11:32:29.828Z,29.14
2023-02-15T11:35:00.570Z,29.18
2023-02-15T11:37:31.395Z,29.31
2023-02-15T11:40:01.673Z,29.48
2023-02-15T11:42:29.870Z,29.19
2023-02-15T11:45:00.925Z,29.19
2023-02-15T11:47:28.952Z,29.20
2023-02-15T11:49:56.843Z,29.38
2023-02-15T11:52:25.415Z,29.40
2023-02-15T11:54:53.539Z,29.30
2023-02-15T11:57:25.695Z,29.48
2023-02-15T11:59:55.124Z,29.53
2023-02-15T12:02:23.852Z,29.54
2023-02-15T12:04:56.626Z,29.78
2023-02-15T12:07:28.335Z,29.33
2023-02-15T12:10:01.511Z,29.60
2023-02-15T12:12:31.932Z,29.48
2023-02-15T12:15:00.401Z,29.57
2023-02-15T12:17:31.987Z,29.22
2023-02-15T12:20:00.271Z,29.53
2023-02-15T12:22:30.483Z,29.49
2023-02-15T12:24:59.512Z,29.18
2023-02-15T12:27:32.247Z,29.77
2023-02-15T12:30:03.277Z,29.53
2023-02-15T12:32:33.549Z,29.50
2023-02-15T12:35:02.903Z,29.45
2023-02-15T12:37:32.981Z,29.45
2023-02-15T12:40:04.567Z,29.36
2023-02-15T12:42:53.224Z,29.42
2023-02-15T12:45:28.703Z,30.06
2023-02-15T12:48:11.667Z,29.60
2023-02-15T12:50:40.925Z,29.45
2023-02-15T12:53:11.241Z,29.12
2023-02-15T12:55:45.690Z,29.91
2023-02-15T12:58:21.586Z,29.64
2023-02-15T13:00:49.749Z,29.42
2023-02-15T13:03:22.575Z,29.63
2023-02-15T13:05:51.686Z,29.57
2023-02-15T13:08:20.950Z,29.63
2023-02-15T13:10:55.716Z,29.45
2023-02-15T13:13:29.053Z,29.65
2023-02-15T13:15:58.495Z,29.64
2023-02-15T13:18:31.607Z,29.38
2023-02-15T13:21:02.072Z,29.58
2023-02-15T13:23:31.408Z,29.57
2023-02-15T13:26:00.881Z,29.57
2023-02-15T13:28:36.630Z,29.33
2023-02-15T13:31:04.985Z,29.41
2023-02-15T13:33:34.659Z,29.73
2023-02-15T13:36:08.712Z,29.90
2023-02-15T13:38:52.940Z,29.39
2023-02-15T13:41:22.424Z,29.29
2023-02-15T13:43:57.275Z,29.68
2023-02-15T13:46:31.632Z,29.49
2023-02-15T13:49:07.428Z,29.25
2023-02-15T13:51:38.006Z,29.39
2023-02-15T13:54:26.110Z,29.51
2023-02-15T13:56:58.915Z,29.63
2023-02-15T13:59:42.329Z,29.59
2023-02-15T14:02:35.234Z,29.71
2023-02-15T14:05:24.056Z,29.40
2023-02-15T14:07:58.803Z,29.77
2023-02-15T14:10:34.909Z,29.82
2023-02-15T14:13:50.451Z,29.85
2023-02-15T14:16:23.240Z,29.66
2023-02-15T14:18:53.364Z,29.52
2023-02-15T14:21:23.926Z,29.50
2023-02-15T14:23:59.535Z,29.53
2023-02-15T14:26:32.900Z,29.39
2023-02-15T14:29:04.851Z,29.84
2023-02-15T14:31:36.453Z,29.58
2023-02-15T14:34:05.359Z,29.74
2023-02-15T14:36:33.445Z,29.37
2023-02-15T14:39:31.296Z,29.57
2023-02-15T14:41:59.789Z,29.69
2023-02-15T14:44:31.193Z,29.61
2023-02-15T14:47:02.312Z,29.63
2023-02-15T14:49:32.953Z,29.71
2023-02-15T14:52:08.059Z,29.69
2023-02-15T14:55:00.961Z,29.77
2023-02-15T14:57:37.735Z,29.85
2023-02-15T15:00:41.506Z,29.61
2023-02-15T15:03:23.716Z,29.64
2023-02-15T15:05:53.433Z,29.89
2023-02-15T15:08:27.738Z,29.87
2023-02-15T15:10:56.614Z,29.45
2023-02-15T15:13:43.269Z,29.97
2023-02-15T15:16:51.742Z,29.64
2023-02-15T15:20:08.396Z,29.91
2023-02-15T15:22:38.387Z,29.55
2023-02-15T15:25:10.612Z,29.73
2023-02-15T15:27:46.495Z,29.77
2023-02-15T15:31:04.376Z,29.44
2023-02-15T15:34:04.317Z,29.59
2023-02-15T15:37:08.608Z,29.88
2023-02-15T15:40:15.235Z,29.64
2023-02-15T15:42:50.496Z,29.90
2023-02-15T15:45:54.671Z,29.62
2023-02-15T15:48:33.460Z,29.69
2023-02-15T15:51:02.893Z,30.14
2023-02-15T15:53:32.702Z,29.74
2023-02-15T15:56:03.544Z,29.97
2023-02-15T15:58:32.673Z,30.26
2023-02-15T16:01:01.833Z,30.13
2023-02-15T16:03:30.377Z,29.89
2023-02-15T16:06:01.412Z,30.13
2023-02-15T16:08:31.268Z,29.96
2023-02-15T16:10:59.214Z,30.04
2023-02-15T16:13:28.805Z,29.71
2023-02-15T16:15:57.390Z,29.83
2023-02-15T16:18:28.591Z,29.91
2023-02-15T16:20:57.362Z,30.22
2023-02-15T16:23:52.636Z,29.92
2023-02-15T16:26:25.300Z,30.21
2023-02-15T16:28:55.257Z,30.03
2023-02-15T16:31:24.404Z,30.12
2023-02-15T16:33:55.072Z,29.60
2023-02-15T16:36:23.999Z,29.99
2023-02-15T16:39:11.950Z,29.63
2023-02-15T16:41:40.314Z,30.23
2023-02-15T16:44:14.174Z,29.71
2023-02-15T16:46:42.764Z,29.91
2023-02-15T16:49:17.296Z,30.02
2023-02-15T16:51:45.762Z,29.87
2023-02-15T16:54:17.708Z,29.72
2023-02-15T16:56:47.322Z,29.99
2023-02-15T16:59:22.461Z,30.19
2023-02-15T17:01:50.394Z,29.87
2023-02-15T17:04:28.729Z,29.97
2023-02-15T17:07:05.930Z,29.84
2023-02-15T17:09:34.126Z,29.77
2023-02-15T17:12:03.213Z,30.13
2023-02-15T17:14:33.412Z,30.26
2023-02-15T17:17:03.378Z,30.24
2023-02-15T17:19:32.727Z,29.82
2023-02-15T17:22:02.284Z,30.22
2023-02-15T17:24:39.485Z,30.20
2023-02-15T17:27:12.946Z,29.78
2023-02-15T17:29:42.873Z,30.02
2023-02-15T17:32:17.414Z,30.22
2023-02-15T17:35:09.208Z,30.09
2023-02-15T17:37:47.567Z,29.98
2023-02-15T17:40:24.457Z,30.08
2023-02-15T17:42:52.452Z,30.15
2023-02-15T17:45:22.139Z,30.08
2023-02-15T17:47:50.529Z,30.21
2023-02-15T17:50:22.097Z,30.28
2023-02-15T17:52:50.349Z,30.08
2023-02-15T17:55:39.172Z,30.20
2023-02-15T17:58:08.599Z,29.76
2023-02-15T18:00:57.773Z,30.26
2023-02-15T18:03:43.611Z,29.99
2023-02-15T18:06:29.438Z,30.24
2023-02-15T18:09:15.080Z,30.08
2023-02-15T18:11:48.616Z,30.22
2023-02-15T18:14:16.517Z,29.82
2023-02-15T18:16:46.246Z,30.07
2023-02-15T18:19:18.830Z,30.13
2023-02-15T18:21:47.200Z,29.70
2023-02-15T18:24:19.150Z,29.74
2023-02-15T18:26:47.056Z,29.99
2023-02-15T18:29:15.040Z,29.87
2023-02-15T18:31:43.002Z,29.95
2023-02-15T18:34:20.250Z,30.24
2023-02-15T18:36:48.204Z,30.26
2023-02-15T18:39:27.051Z,29.92
2023-02-15T18:41:55.007Z,30.23
2023-02-15T18:44:22.925Z,30.20
2023-02-15T18:46:50.940Z,30.17
2023-02-15T18:49:20.412Z,29.88
2023-02-15T18:51:48.678Z,29.97
2023-02-15T18:54:20.753Z,30.34
2023-02-15T18:56:53.337Z,30.08
2023-02-15T18:59:22.076Z,30.30
2023-02-15T19:01:49.977Z,30.22
2023-02-15T19:04:18.356Z,30.18
2023-02-15T19:06:48.840Z,29.98
2023-02-15T19:09:18.243Z,30.21
2023-02-15T19:11:49.166Z,29.85
2023-02-15T19:14:24.359Z,29.86
2023-02-15T19:16:52.577Z,30.17
2023-02-15T19:19:20.596Z,30.11
2023-02-15T19:21:50.170Z,29.99
2023-02-15T19:24:19.767Z,29.94
2023-02-15T19:26:47.706Z,30.16
2023-02-15T19:29:16.852Z,29.86
2023-02-15T19:31:44.827Z,29.79
2023-02-15T19:34:14.752Z,29.89
2023-02-15T19:36:42.813Z,29.76
2023-02-15T19:39:21.584Z,30.32
2023-02-15T19:41:49.492Z,29.75
2023-02-15T19:44:17.718Z,30.28
2023-02-15T19:46:45.879Z,30.05
2023-02-15T19:49:13.807Z,30.21
2023-02-15T19:51:42.034Z,29.94
2023-02-15T19:54:22.537Z,29.80
2023-02-15T19:56:50.414Z,30.17
2023-02-15T19:59:23.661Z,30.20
2023-02-15T20:01:52.041Z,30.01
2023-02-15T20:04:20.054Z,30.29
2023-02-15T20:06:48.384Z,30.16
2023-02-15T20:09:20.198Z,30.08
2023-02-15T20:11:49.855Z,29.91
2023-02-15T20:14:17.702Z,30.31
2023-02-15T20:16:45.578Z,30.09
2023-02-15T20:19:14.159Z,30.20
2023-02-15T20:21:42.409Z,30.05
2023-02-15T20:24:13.235Z,30.29
2023-02-15T20:26:41.159Z,30.17
2023-02-15T20:29:13.386Z,29.77
2023-02-15T20:31:41.633Z,30.40
2023-02-15T20:34:09.593Z,30.06
2023-02-15T20:36:37.475Z,30.39
2023-02-15T20:39:09.573Z,29.98
2023-02-15T20:41:40.014Z,29.92
2023-02-15T20:44:18.811Z,30.46
2023-02-15T20:46:46.784Z,30.27
2023-02-15T20:49:14.814Z,29.98
2023-02-15T20:51:44.704Z,30.30
2023-02-15T20:54:14.694Z,30.00
2023-02-15T20:56:43.313Z,30.40
2023-02-15T20:59:26.498Z,29.84
2023-02-15T21:01:57.030Z,30.36
2023-02-15T21:04:27.699Z,30.40
2023-02-15T21:06:55.634Z,30.15
2023-02-15T21:09:23.525Z,30.36
2023-02-15T21:11:52.066Z,30.39
2023-02-15T21:14:20.691Z,29.89
2023-02-15T21:16:50.221Z,30.27
2023-02-15T21:19:18.967Z,29.93
2023-02-15T21:21:48.589Z,30.12
2023-02-15T21:24:16.965Z,30.44
2023-02-15T21:26:46.203Z,30.01
2023-02-15T21:29:18.191Z,30.41
2023-02-15T21:31:46.518Z,30.17
2023-02-15T21:34:15.967Z,30.15
2023-02-15T21:36:43.856Z,30.18
2023-02-15T21:39:18.735Z,29.91
2023-02-15T21:42:04.547Z,29.96
2023-02-15T21:44:50.205Z,30.17
2023-02-15T21:47:39.367Z,30.20
2023-02-15T21:50:27.809Z,30.16
2023-02-15T21:52:55.748Z,29.94
2023-02-15T21:55:26.381Z,30.22
2023-02-15T21:57:54.309Z,29.93
2023-02-15T22:00:23.324Z,29.98
2023-02-15T22:02:53.818Z,30.05
2023-02-15T22:05:24.497Z,29.83
2023-02-15T22:07:52.459Z,30.21
2023-02-15T22:10:22.704Z,30.23
2023-02-15T22:12:51.121Z,30.01
2023-02-15T22:15:20.401Z,30.06
2023-02-15T22:17:48.440Z,30.25
2023-02-15T22:20:17.521Z,30.25
2023-02-15T22:22:50.196Z,29.98
2023-02-15T22:25:19.389Z,30.23
2023-02-15T22:27:47.500Z,30.24
2023-02-15T22:30:21.483Z,29.94
2023-02-15T22:32:49.867Z,29.94
2023-02-15T22:35:18.423Z,30.36
2023-02-15T22:37:47.793Z,29.79
2023-02-15T22:40:16.794Z,30.07
2023-02-15T22:42:46.439Z,30.11
2023-02-15T22:45:17.539Z,29.83
2023-02-15T22:47:45.472Z,29.95
2023-02-15T22:50:20.135Z,29.76
2023-02-15T22:52:49.450Z,29.80
2023-02-15T22:55:17.568Z,30.11
2023-02-15T22:57:45.880Z,29.80
2023-02-15T23:00:16.960Z,29.73
2023-02-15T23:02:45.161Z,29.80
2023-02-15T23:05:23.427Z,29.80
2023-02-15T23:07:52.743Z,30.14
2023-02-15T23:10:24.724Z,29.64
2023-02-15T23:13:11.769Z,30.24
2023-02-15T23:15:39.820Z,30.19
2023-02-15T23:18:18.406Z,29.86
2023-02-15T23:20:46.750Z,30.29
2023-02-15T23:23:16.365Z,30.18
2023-02-15T23:25:44.256Z,29.77
2023-02-15T23:28:23.479Z,29.62
2023-02-15T23:30:51.497Z,29.82
2023-02-15T23:33:23.604Z,29.94
2023-02-15T23:35:51.581Z,29.72
2023-02-15T23:38:25.831Z,29.90
2023-02-15T23:41:16.063Z,29.64
2023-02-15T23:43:46.663Z,29.70
2023-02-15T23:46:34.969Z,30.20
2023-02-15T23:49:15.213Z,30.24
2023-02-15T23:51:44.296Z,30.17
2023-02-15T23:54:13.609Z,29.99
2023-02-15T23:56:41.697Z,29.64
2023-02-15T23:59:09.693Z,30.17
